Latest Coastal Weather Observations for Bundaberg

IDQ60701

Issued at 12:42 am EST Tuesday 24 January 2017 (issued every 10 minutes, with the page automatically refreshed every 10 minutes)

About coastal observations | Map of coastal stations | Coastal observations for QLD | Marine services | Other Formats
Station Details ID: 039128 Name: BUNDABERG AERO Lat: -24.91 Lon: 152.32 Height: 30.82 m
Data from the previous 72 hours. | See also: Recent months at Bundaberg
Date/Time
EST
Temp
°C
Wind Pressure Rain since
9am
mm
Weather Cloud Vis
km
Sea
Height
m
Swell
Dir  Spd
kts
Gust
kts
hPa Trend Height
m
Period
s
Dir
24/12:30am 21.0 S 5 6 1014.9 - 0.0 - - 10 - - - -
24/12:00am 21.1 S 6 8 1015.3 - 0.0 - Mostly clear 10 - - - -
 
Date/Time
EST
Temp
°C
Wind Pressure Rain since
9am
mm
Weather Cloud Vis
km
Sea
Height
m
Swell
Dir  Spd
kts
Gust
kts
hPa Trend Height
m
Period
s
Dir
23/11:30pm 21.5 S 5 6 1015.4 - 0.0 - Partly cloudy 10 - - - -
23/11:00pm 21.5 SSE 4 5 1015.8 - 0.0 - - 10 - - - -
23/10:30pm 22.0 SSE 4 5 1015.8 - 0.0 - - 10 - - - -
23/10:00pm 22.3 SSE 3 4 1016.0 - 0.0 - Partly cloudy 10 - - - -
23/09:30pm 23.4 ESE 7 8 1016.0 - 0.0 - - 10 - - - -
23/09:00pm 23.9 ESE 7 10 1015.9 - 0.0 - - 10 - - - -
23/08:30pm 24.4 E 7 8 1015.7 - 0.0 - Partly cloudy 10 - - - -
23/08:00pm 24.6 ESE 7 8 1015.5 - 0.0 - - 10 - - - -
23/07:30pm 25.1 E 8 10 1015.0 - 0.0 - - 10 - - - -
23/07:00pm 25.8 E 8 11 1014.7 - 0.0 - Partly cloudy 10 - - - -
23/06:30pm 26.6 E 10 14 1014.4 - 0.0 - - 10 - - - -
23/06:00pm 27.5 E 12 16 1014.0 - 0.0 - - 10 - - - -
23/05:30pm 28.1 E 13 16 1013.4 - 0.0 - - 10 - - - -
23/05:00pm 28.6 E 13 16 1012.9 - 0.0 - - 10 - - - -
23/04:30pm 29.0 E 12 15 1012.7 - 0.0 - - 10 - - - -
23/04:00pm 28.9 ENE 14 17 1012.5 - 0.0 - - 10 - - - -
23/03:30pm 29.5 E 12 16 1012.6 - 0.0 - - 10 - - - -
23/03:00pm 29.9 E 13 17 1012.9 - 0.0 - - 10 - - - -
23/02:49pm 30.0 ENE 11 17 1013.0 - 0.0 - - 10 - - - -
23/02:30pm 30.3 E 11 17 1013.0 - 0.0 - - 5 - - - -
23/02:00pm 30.3 E 12 17 1013.1 - 0.0 - - 10 - - - -
23/01:30pm 30.0 ENE 13 18 1013.4 - 0.0 - - 10 - - - -
23/01:00pm 30.2 E 13 18 1013.7 - 0.0 - - 10 - - - -
23/12:30pm 29.7 E 13 17 1013.9 - 0.0 - Partly cloudy 10 - - - -
23/12:00pm 29.7 E 13 17 1014.3 - 0.0 - Mostly clear 10 - - - -
23/11:30am 29.7 E 12 16 1014.8 - 0.0 - Partly cloudy 10 - - - -
23/11:00am 29.3 E 13 17 1015.1 - 0.0 - Partly cloudy 10 - - - -
23/10:30am 28.4 ESE 12 19 1015.3 - 0.0 - Partly cloudy 10 - - - -
23/10:00am 29.0 SE 12 17 1015.5 - 0.0 - Partly cloudy 10 - - - -
23/09:30am 28.1 ESE 13 17 1015.7 - 0.0 - - 10 - - - -
23/09:00am 27.6 SE 13 17 1015.8 - 0.0 - - 10 - - - -
23/08:30am 27.4 ESE 11 16 1015.7 - 0.0 - - 10 - - - -
23/08:00am 26.2 SE 11 15 1015.6 - 0.0 - - 10 - - - -
23/07:30am 25.2 SSE 9 13 1015.5 - 0.0 - - 10 - - - -
23/07:00am 23.6 SSE 8 11 1015.3 - 0.0 - - 10 - - - -
23/06:30am 22.3 SSE 8 10 1015.1 - 0.0 - - 10 - - - -
23/06:00am 21.2 SSE 7 9 1014.6 - 0.0 - - 10 - - - -
23/05:30am 20.7 SSE 7 9 1014.3 - 0.0 - - 10 - - - -
23/05:00am 21.0 SSE 7 10 1013.9 - 0.0 - Partly cloudy 10 - - - -
23/04:30am 20.8 SSE 9 11 1013.5 - 0.0 - - 10 - - - -
23/04:00am 20.8 SSE 8 11 1013.3 - 0.0 - - 10 - - - -
23/03:30am 21.0 SSE 7 9 1013.2 - 0.0 - - 10 - - - -
23/03:00am 21.9 SSE 7 9 1013.4 - 0.0 - Partly cloudy 10 - - - -
23/02:30am 22.7 SSE 9 12 1013.5 - 0.0 - Cloudy 10 - - - -
23/02:00am 23.0 SSE 8 11 1013.6 - 0.0 - Partly cloudy 10 - - - -
23/01:30am 23.4 SE 9 12 1013.8 - 0.0 - Partly cloudy 10 - - - -
23/01:00am 23.6 SSE 8 12 1014.0 - 0.0 - Partly cloudy 10 - - - -
23/12:30am 23.7 SSE 7 9 1014.5 - 0.0 - Partly cloudy 10 - - - -
23/12:00am 24.3 SSE 7 10 1014.6 - 0.0 - Cloudy 10 - - - -
 
Date/Time
EST
Temp
°C
Wind Pressure Rain since
9am
mm
Weather Cloud Vis
km
Sea
Height
m
Swell
Dir  Spd
kts
Gust
kts
hPa Trend Height
m
Period
s
Dir
22/11:30pm 24.5 SE 9 12 1014.6 - 0.0 - Cloudy 10 - - - -
22/11:00pm 24.4 SSE 8 10 1014.8 - 0.0 - Cloudy 10 - - - -
22/10:30pm 24.0 SSE 7 9 1014.9 - 0.0 - Partly cloudy 10 - - - -
22/10:00pm 24.3 SSE 7 11 1014.9 - 0.0 - Cloudy 10 - - - -
22/09:30pm 24.7 SE 9 12 1014.8 - 0.0 - Partly cloudy 10 - - - -
22/09:00pm 24.9 SE 10 13 1014.7 - 0.0 - Cloudy 10 - - - -
22/08:30pm 24.9 SE 9 12 1014.6 - 0.0 - Partly cloudy 10 - - - -
22/08:00pm 25.1 SE 11 13 1014.5 - 0.0 - Cloudy 10 - - - -
22/07:30pm 25.4 SE 11 14 1014.4 - 0.0 - Partly cloudy 10 - - - -
22/07:00pm 25.5 SE 13 18 1014.2 - 0.0 - Cloudy 10 - - - -
22/06:30pm 25.7 ESE 13 16 1013.8 - 0.0 - Cloudy 10 - - - -
22/06:00pm 26.2 ESE 14 20 1013.5 - 0.0 - Cloudy 10 - - - -
22/05:30pm 26.6 ESE 14 19 1013.1 - 0.0 - Cloudy 10 - - - -
22/05:00pm 27.2 ESE 11 16 1012.9 - 0.0 - Partly cloudy 10 - - - -
22/04:30pm 27.1 ESE 13 16 1012.8 - 0.0 - Cloudy 10 - - - -
22/04:00pm 27.0 ESE 13 16 1012.8 - 0.0 - Cloudy 10 - - - -
22/03:30pm 26.9 SE 13 16 1013.0 - 0.0 - Cloudy 10 - - - -
22/03:00pm 26.7 SE 13 17 1013.3 - 0.0 - Mostly cloudy 10 - - - -
22/02:30pm 27.0 SE 12 15 1013.5 - 0.0 - Cloudy 10 - - - -
22/02:00pm 27.1 SE 16 22 1013.6 - 0.0 - Cloudy 10 - - - -
22/01:30pm 27.7 SE 14 17 1013.7 - 0.0 - Partly cloudy 10 - - - -
22/01:00pm 28.3 ESE 16 23 1013.9 - 0.0 - Cloudy 10 - - - -
22/12:30pm 27.5 ESE 16 21 1014.2 - 0.0 - Partly cloudy 10 - - - -
22/12:00pm 27.6 SE 15 21 1014.4 - 0.0 - Cloudy 10 - - - -
22/11:30am 27.5 ESE 17 22 1014.6 - 0.0 - Partly cloudy 10 - - - -
22/11:00am 27.7 ESE 16 22 1014.8 - 0.0 - Partly cloudy 10 - - - -
22/10:30am 26.9 SE 12 17 1014.8 - 0.0 - Partly cloudy 10 - - - -
22/10:00am 26.4 SE 14 18 1015.0 - 0.0 - Partly cloudy 10 - - - -
22/09:30am 26.1 ESE 13 16 1014.8 - 0.0 - Partly cloudy 10 - - - -
22/09:00am 24.7 ESE 11 16 1014.9 - 0.0 - Cloudy 10 - - - -
22/08:47am 24.3 SE 10 14 1014.8 - 0.0 - Partly cloudy 10 - - - -
22/08:30am 23.8 ESE 14 19 1014.7 - 0.0 - Partly cloudy 4 - - - -
22/08:27am 24.0 SE 15 19 1014.7 - 0.0 - Partly cloudy 5 - - - -
22/08:00am 24.9 SE 14 20 1014.2 - 0.0 - Partly cloudy 10 - - - -
22/07:30am 25.1 SE 14 19 1013.9 - 0.0 - Partly cloudy 10 - - - -
22/07:00am 24.6 SSE 11 16 1013.7 - 0.0 - Partly cloudy 10 - - - -
22/06:30am 24.2 SSE 11 16 1013.5 - 0.0 - Partly cloudy 10 - - - -
22/06:00am 23.8 SE 13 16 1013.2 - 0.0 - Cloudy 10 - - - -
22/05:30am 24.0 SSE 11 16 1012.8 - 0.0 - Partly cloudy 10 - - - -
22/05:00am 23.9 SSE 12 17 1012.3 - 0.0 - Cloudy 10 - - - -
22/04:30am 24.0 SE 13 17 1011.8 - 0.0 - Partly cloudy 10 - - - -
22/04:00am 24.1 SE 13 18 1011.4 - 0.0 - Partly cloudy 10 - - - -
22/03:30am 24.1 SE 14 18 1011.1 - 0.0 - Cloudy 10 - - - -
22/03:00am 24.1 SE 13 18 1011.0 - 0.0 - Cloudy 10 - - - -
22/02:30am 24.5 SE 11 15 1011.3 - 0.0 - Partly cloudy 10 - - - -
22/02:00am 24.6 SSE 12 16 1011.1 - 0.0 - Partly cloudy 10 - - - -
22/01:30am 24.7 SE 13 19 1011.1 - 0.0 - Partly cloudy 10 - - - -
22/01:19am 24.8 SE 15 22 1011.1 - 0.0 - Partly cloudy 10 - - - -
22/01:00am 24.8 SSE 14 21 1011.1 - 0.0 - Partly cloudy 10 - - - -
22/12:44am 25.2 SE 15 20 1011.1 - 0.0 - Partly cloudy 10 - - - -
22/12:30am 25.3 SE 16 19 1011.1 - 0.0 - Partly cloudy 10 - - - -
22/12:00am 25.5 SSE 13 18 1011.0 - 0.0 Rain Cloudy 10 - - - -
 
Date/Time
EST
Temp
°C
Wind Pressure Rain since
9am
mm
Weather Cloud Vis
km
Sea
Height
m
Swell
Dir  Spd
kts
Gust
kts
hPa Trend Height
m
Period
s
Dir
21/11:30pm 25.9 SE 14 19 1011.1 - 0.0 - Cloudy 9 - - - -
21/11:12pm 26.2 SE 11 16 1011.0 - 0.0 - Cloudy 9 - - - -
21/11:00pm 26.8 SE 12 16 1010.9 - 0.0 - Partly cloudy 10 - - - -
21/10:30pm 26.9 ESE 11 14 1011.0 - 0.0 - Partly cloudy 10 - - - -
21/10:00pm 27.2 SE 11 14 1010.9 - 0.0 - Partly cloudy 10 - - - -
21/09:30pm 26.7 SSE 7 9 1010.3 - 0.0 - Partly cloudy 10 - - - -
21/09:00pm 27.2 E 5 6 1009.8 - 0.0 - Cloudy 10 - - - -
21/08:30pm 27.5 E 5 7 1009.5 - 0.0 - Partly cloudy 10 - - - -
21/08:00pm 27.9 SE 10 13 1009.5 - 0.0 - Partly cloudy 10 - - - -
21/07:30pm 27.8 NNW 10 12 1007.8 - 0.0 - Partly cloudy 10 - - - -
21/07:00pm 28.0 NNW 11 13 1007.6 - 0.0 - Cloudy 10 - - - -
21/06:30pm 28.3 NNW 10 13 1007.1 - 0.0 - Cloudy 10 - - - -
21/06:00pm 28.7 N 12 15 1006.6 - 0.0 - Partly cloudy 10 - - - -
21/05:30pm 28.8 N 12 14 1006.2 - 0.0 - - 10 - - - -
21/05:00pm 29.1 N 13 16 1005.7 - 0.0 - - 10 - - - -
21/04:30pm 29.3 N 13 16 1005.6 - 0.0 - - 10 - - - -
21/04:00pm 30.1 N 14 18 1005.5 - 0.0 - Partly cloudy 10 - - - -
21/03:30pm 30.6 N 14 17 1005.8 - 0.0 - Partly cloudy 10 - - - -
21/03:00pm 31.7 N 15 18 1006.1 - 0.0 - - 10 - - - -
21/02:30pm 31.3 N 13 15 1006.3 - 0.0 - - 10 - - - -
21/02:00pm 31.0 N 12 15 1006.6 - 0.0 - - 10 - - - -
21/01:30pm 31.5 N 11 13 1006.8 - 0.0 - - 10 - - - -
21/01:00pm 31.8 N 8 11 1007.0 - 0.0 - - 10 - - - -
21/12:30pm 32.4 N 8 11 1007.1 - 0.0 - - 10 - - - -
21/12:00pm 33.3 NNW 8 11 1007.3 - 0.0 - - 10 - - - -
21/11:30am 33.0 WNW 9 13 1007.7 - 0.0 - - 10 - - - -
21/11:00am 32.1 NNW 11 13 1007.9 - 0.0 - - 10 - - - -
21/10:30am 31.2 NW 10 13 1008.2 - 0.0 - Partly cloudy 10 - - - -
21/10:00am 31.2 NW 9 13 1008.5 - 0.0 - - 10 - - - -
21/09:30am 30.7 NW 9 15 1008.6 - 0.0 - - 10 - - - -
21/09:00am 30.0 NNW 10 12 1008.4 - 0.0 - - 10 - - - -
21/08:30am 28.3 NNW 9 12 1008.6 - 0.0 - - 10 - - - -
21/08:00am 27.3 NW 7 10 1008.7 - 0.0 - - 10 - - - -
21/07:30am 26.7 NW 9 11 1008.7 - 0.0 - Partly cloudy 10 - - - -
21/07:00am 26.1 NNW 10 13 1008.5 - 0.0 - Partly cloudy 10 - - - -
21/06:30am 25.8 NW 9 11 1008.4 - 0.0 - Partly cloudy 10 - - - -
21/06:00am 25.0 NW 7 9 1008.1 - 0.0 - Mostly clear 10 - - - -
21/05:30am 24.6 N 7 8 1007.5 - 0.0 - - 10 - - - -
21/05:00am 24.3 NNW 4 5 1007.2 - 0.0 - - 10 - - - -
21/04:30am 24.4 WSW 4 7 1007.2 - 0.0 - Partly cloudy 10 - - - -
21/04:00am 25.0 NW 6 9 1006.4 - 0.0 - Cloudy 10 - - - -
21/03:30am 25.5 NW 13 17 1006.0 - 0.0 - Partly cloudy 10 - - - -
21/03:00am 25.8 NNW 14 18 1005.7 - 0.0 - - 10 - - - -
21/02:30am 25.7 NNW 13 17 1005.6 - 0.0 - - 10 - - - -
21/02:00am 25.7 NNW 13 18 1005.7 - 0.0 - - 10 - - - -
21/01:30am 25.8 NNW 14 18 1005.9 - 0.0 - - 10 - - - -
21/01:00am 25.9 NNW 13 17 1006.2 - 0.0 - - 10 - - - -

Other Formats:

Comma delimited format used in spreadsheet applications
http://www.bom.gov.au/fwo/IDQ60701/IDQ60701.94387.axf

JavaScript Object Notation format (JSON) in row-major order
http://www.bom.gov.au/fwo/IDQ60701/IDQ60701.94387.json